Impacts TAF Board
For situational awareness. Not to be used for flight planning purposes.
IDs:

KLAX - Los Angeles Intl, CA, US

Issued at 2352 UTC 24 Mar 2019
Updated at 0123 UTC 25 Mar 2019
Potential Impact None Slight Moderate High
Time<<25/14Z 25/15Z 25/16Z 25/17Z 25/18Z 25/19Z 25/20Z 25/21Z 25/22Z 25/23Z 26/00Z 26/01Z 26/02Z>>
Type PRVL PRVL PRVL PRVL PRVL PRVL PRVL PRVL PRVL PRVL PRVL PRVL PRVL
VIS >6 >6 >6 >6 >6 >6 >6 >6 >6 >6 >6 >6 >6
CIG -- -- -- -- -- -- -- -- -- -- -- -- --
Cover SCT SCT SCT SKC SKC SKC SKC SKC SKC SKC SKC SKC SKC
FltCat VFR VFR VFR VFR VFR VFR VFR VFR VFR VFR VFR VFR VFR
WX -- -- -- -- -- -- -- -- -- -- -- -- --
WDir VRB VRB VRB 270 270 270 270 260 260 260 260 260 260
WSpd 3 3 3 6 6 6 6 12 12 12 12 12 12
WGst -- -- -- -- -- -- -- 20 20 20 20 20 20
Raw TAF
KLAX 242352Z 2500/2606 26011KT P6SM SKC
  FM250300 26006KT P6SM SKC
  FM250900 VRB03KT P6SM SCT010
  FM251700 27006KT P6SM SKC
  FM252100 26012G20KT P6SM SKC
  FM260300 26008KT P6SM SCT250


METAR Board
Radar Display
Forecast Discussion
For situational awareness. Not to be used for flight planning purposes.